createdAt,value
2023-05-21T00:01:08.853Z,75.80
2023-05-21T00:03:41.873Z,75.90
2023-05-21T00:06:10.239Z,76.00
2023-05-21T00:08:38.428Z,76.00
2023-05-21T00:11:07.207Z,76.10
2023-05-21T00:13:35.451Z,76.10
2023-05-21T00:16:03.664Z,76.20
2023-05-21T00:18:32.499Z,76.20
2023-05-21T00:21:02.268Z,76.30
2023-05-21T00:23:32.744Z,76.40
2023-05-21T00:26:01.386Z,76.30
2023-05-21T00:28:29.599Z,76.30
2023-05-21T00:30:57.761Z,76.60
2023-05-21T00:33:29.131Z,76.70
2023-05-21T00:35:59.407Z,76.70
2023-05-21T00:38:46.080Z,76.80
2023-05-21T00:41:17.097Z,77.00
2023-05-21T00:43:47.303Z,77.20
2023-05-21T00:46:19.315Z,77.10
2023-05-21T00:48:48.447Z,77.30
2023-05-21T00:51:16.947Z,77.40
2023-05-21T00:53:47.158Z,77.50
2023-05-21T00:56:15.392Z,77.60
2023-05-21T00:58:43.539Z,77.70
2023-05-21T01:01:13.995Z,77.70
2023-05-21T01:03:43.296Z,77.70
2023-05-21T01:06:14.060Z,77.80
2023-05-21T01:08:43.004Z,77.90
2023-05-21T01:11:12.911Z,78.00
2023-05-21T01:13:42.461Z,77.90
2023-05-21T01:16:13.537Z,78.10
2023-05-21T01:18:43.652Z,78.10
2023-05-21T01:21:12.335Z,78.10
2023-05-21T01:23:42.026Z,78.30
2023-05-21T01:26:13.146Z,78.40
2023-05-21T01:28:42.256Z,78.30
2023-05-21T01:31:24.930Z,78.40
2023-05-21T01:33:56.050Z,78.40
2023-05-21T01:36:28.510Z,78.50
2023-05-21T01:39:03.869Z,78.60
2023-05-21T01:41:38.244Z,78.70
2023-05-21T01:44:08.241Z,78.70
2023-05-21T01:46:37.223Z,78.80
2023-05-21T01:49:07.513Z,78.80
2023-05-21T01:51:36.970Z,78.90
2023-05-21T01:54:06.564Z,78.90
2023-05-21T01:56:37.031Z,78.90
2023-05-21T01:59:05.495Z,79.10
2023-05-21T02:01:33.663Z,79.20
2023-05-21T02:04:01.920Z,79.10
2023-05-21T02:06:31.892Z,79.30
2023-05-21T02:09:00.179Z,79.30
2023-05-21T02:11:29.871Z,79.30
2023-05-21T02:13:58.491Z,79.40
2023-05-21T02:16:27.251Z,79.50
2023-05-21T02:21:48.162Z,79.60
2023-05-21T02:24:17.210Z,79.60
2023-05-21T02:26:48.538Z,79.70
2023-05-21T02:29:18.250Z,79.80
2023-05-21T02:31:52.054Z,79.90
2023-05-21T02:34:25.330Z,79.90
2023-05-21T02:36:54.856Z,79.90
2023-05-21T02:39:27.060Z,80.00
2023-05-21T02:41:59.048Z,80.00
2023-05-21T02:44:30.273Z,80.10
2023-05-21T02:47:00.871Z,80.20
2023-05-21T02:49:32.790Z,80.40
2023-05-21T02:52:01.034Z,80.40
2023-05-21T02:54:35.332Z,80.50
2023-05-21T02:57:13.211Z,80.60
2023-05-21T02:59:50.218Z,80.70
2023-05-21T03:02:26.986Z,80.60
2023-05-21T03:05:03.903Z,80.80
2023-05-21T03:07:40.490Z,80.80
2023-05-21T03:10:23.137Z,80.80
2023-05-21T03:13:00.369Z,80.80
2023-05-21T03:15:34.199Z,80.90
2023-05-21T03:18:17.206Z,80.90
2023-05-21T03:20:53.783Z,81.00
2023-05-21T03:28:51.817Z,81.10
2023-05-21T03:31:20.263Z,81.00
2023-05-21T03:33:58.286Z,81.10
2023-05-21T03:36:29.915Z,81.10
2023-05-21T03:39:00.461Z,81.10
2023-05-21T03:41:33.516Z,81.10
2023-05-21T03:44:10.546Z,81.30
2023-05-21T03:46:40.994Z,81.40
2023-05-21T03:49:17.510Z,81.40
2023-05-21T03:51:48.187Z,81.40
2023-05-21T03:54:22.661Z,81.50
2023-05-21T03:56:52.339Z,81.50
2023-05-21T03:59:35.283Z,81.60
2023-05-21T04:02:05.243Z,81.60
2023-05-21T04:04:42.201Z,81.70
2023-05-21T04:07:17.314Z,81.70
2023-05-21T04:09:52.294Z,81.70
2023-05-21T04:12:22.854Z,81.70
2023-05-21T04:14:55.117Z,81.80
2023-05-21T04:17:27.232Z,81.90
2023-05-21T04:19:55.750Z,81.90
2023-05-21T04:25:12.769Z,81.90
2023-05-21T04:27:43.649Z,81.90
2023-05-21T04:30:22.353Z,81.90
2023-05-21T04:32:51.013Z,81.80
2023-05-21T04:35:21.793Z,81.90
2023-05-21T04:37:55.519Z,81.80
2023-05-21T04:40:33.595Z,81.90
2023-05-21T04:43:07.651Z,81.90
2023-05-21T04:45:38.258Z,81.90
2023-05-21T04:48:08.004Z,81.80
2023-05-21T04:50:39.415Z,81.80
2023-05-21T04:53:09.909Z,81.80
2023-05-21T04:55:40.271Z,81.80
2023-05-21T04:58:26.456Z,81.90
2023-05-21T05:00:58.794Z,81.80
2023-05-21T05:03:29.306Z,81.80
2023-05-21T05:05:57.993Z,81.80
2023-05-21T05:08:28.610Z,81.80
2023-05-21T05:10:57.083Z,81.70
2023-05-21T05:13:27.838Z,81.80
2023-05-21T05:18:45.306Z,81.60
2023-05-21T05:21:14.807Z,81.50
2023-05-21T05:23:46.430Z,81.50
2023-05-21T05:26:17.268Z,81.40
2023-05-21T05:28:46.049Z,81.50
2023-05-21T05:31:18.920Z,81.50
2023-05-21T05:33:49.495Z,81.30
2023-05-21T05:36:19.114Z,81.30
2023-05-21T05:38:49.897Z,81.20
2023-05-21T05:41:18.328Z,81.10
2023-05-21T05:43:50.003Z,81.00
2023-05-21T05:46:21.010Z,80.90
2023-05-21T05:48:53.430Z,80.60
2023-05-21T05:51:36.302Z,80.40
2023-05-21T05:54:04.768Z,80.30
2023-05-21T05:56:36.817Z,80.20
2023-05-21T05:59:07.238Z,80.10
2023-05-21T06:01:52.101Z,80.00
2023-05-21T06:04:32.536Z,79.90
2023-05-21T06:07:03.502Z,79.90
2023-05-21T06:09:33.046Z,79.60
2023-05-21T06:12:05.688Z,79.30
2023-05-21T06:14:39.278Z,79.10
2023-05-21T06:17:12.515Z,78.90
2023-05-21T06:19:49.070Z,78.50
2023-05-21T06:22:32.980Z,78.50
2023-05-21T06:28:02.485Z,78.20
2023-05-21T06:33:28.653Z,78.00
2023-05-21T06:35:58.345Z,77.10
2023-05-21T06:38:28.879Z,77.10
2023-05-21T06:43:49.134Z,76.20
2023-05-21T06:46:23.657Z,75.90
2023-05-21T06:48:54.943Z,75.90
2023-05-21T06:54:18.771Z,75.90
2023-05-21T06:56:56.303Z,75.20
2023-05-21T06:59:26.814Z,75.20
2023-05-21T07:01:57.458Z,75.30
2023-05-21T07:04:27.387Z,75.30
2023-05-21T07:06:58.535Z,75.30
2023-05-21T07:09:30.218Z,75.20
2023-05-21T07:11:58.442Z,75.00
2023-05-21T07:14:29.877Z,75.00
2023-05-21T07:16:59.054Z,74.80
2023-05-21T07:19:31.200Z,74.50
2023-05-21T07:22:02.364Z,74.60
2023-05-21T07:24:35.750Z,74.30
2023-05-21T07:29:52.830Z,74.40
2023-05-21T07:32:23.334Z,74.90
2023-05-21T07:34:58.259Z,74.50
2023-05-21T07:37:30.301Z,74.10
2023-05-21T07:40:01.802Z,74.00
2023-05-21T07:42:35.623Z,73.50
2023-05-21T07:45:11.494Z,73.10
2023-05-21T07:47:52.170Z,73.10
2023-05-21T07:50:29.408Z,73.40
2023-05-21T07:53:01.074Z,73.00
2023-05-21T07:55:38.098Z,72.60
2023-05-21T07:58:17.805Z,72.20
2023-05-21T08:00:51.631Z,72.10
2023-05-21T08:03:20.160Z,72.20
2023-05-21T08:06:02.138Z,72.30
2023-05-21T08:08:30.643Z,71.80
2023-05-21T08:11:12.708Z,72.00
2023-05-21T08:13:43.321Z,71.70
2023-05-21T08:16:13.131Z,71.20
2023-05-21T08:18:52.131Z,71.70
2023-05-21T08:21:37.465Z,71.20
2023-05-21T08:24:08.187Z,71.20
2023-05-21T08:26:47.552Z,70.90
2023-05-21T08:29:15.856Z,70.60
2023-05-21T08:31:47.495Z,70.30
2023-05-21T08:34:17.152Z,70.50
2023-05-21T08:37:05.643Z,69.90
2023-05-21T08:39:36.407Z,70.20
2023-05-21T08:45:02.247Z,69.40
2023-05-21T08:47:36.815Z,69.40
2023-05-21T08:53:16.042Z,68.90
2023-05-21T08:55:56.181Z,68.80
2023-05-21T09:01:12.453Z,68.80
2023-05-21T09:03:45.794Z,68.50
2023-05-21T09:06:23.299Z,68.40
2023-05-21T09:09:05.374Z,68.40
2023-05-21T09:11:37.169Z,68.00
2023-05-21T09:14:28.376Z,68.30
2023-05-21T09:17:01.333Z,68.00
2023-05-21T09:19:33.380Z,68.30
2023-05-21T09:22:08.886Z,67.40
2023-05-21T09:24:44.353Z,67.60
2023-05-21T09:27:21.104Z,67.30
2023-05-21T09:29:49.474Z,67.10
2023-05-21T09:32:19.098Z,67.30
2023-05-21T09:34:49.726Z,67.30
2023-05-21T09:37:27.162Z,66.50
2023-05-21T09:39:59.678Z,67.10
2023-05-21T09:42:41.621Z,66.90
2023-05-21T09:45:34.677Z,66.20
2023-05-21T09:48:04.182Z,66.20
2023-05-21T09:50:32.946Z,66.00
2023-05-21T09:53:06.214Z,65.50
2023-05-21T09:58:22.842Z,65.30
2023-05-21T10:00:53.244Z,64.80
2023-05-21T10:03:34.195Z,65.30
2023-05-21T10:06:02.441Z,65.00
2023-05-21T10:08:38.047Z,65.00
2023-05-21T10:14:10.824Z,64.30
2023-05-21T10:16:39.165Z,64.20
2023-05-21T10:19:18.761Z,63.80
2023-05-21T10:21:49.606Z,63.50
2023-05-21T10:24:22.524Z,63.30
2023-05-21T10:26:53.655Z,64.00
2023-05-21T10:29:34.868Z,63.60
2023-05-21T10:32:07.077Z,63.20
2023-05-21T10:34:41.421Z,62.80
2023-05-21T10:39:57.947Z,62.90
2023-05-21T10:43:02.658Z,63.10
2023-05-21T10:45:48.458Z,62.50
2023-05-21T10:51:45.608Z,61.80
2023-05-21T10:54:50.483Z,61.10
2023-05-21T10:57:42.091Z,61.90
2023-05-21T11:00:18.393Z,61.50
2023-05-21T11:02:53.173Z,61.20
2023-05-21T11:05:51.407Z,60.70
2023-05-21T11:08:28.407Z,61.20
2023-05-21T11:10:58.665Z,60.50
2023-05-21T11:13:31.380Z,60.20
2023-05-21T11:16:18.758Z,59.80
2023-05-21T11:19:06.069Z,59.00
2023-05-21T11:21:43.658Z,59.60
2023-05-21T11:24:28.154Z,59.80
2023-05-21T11:27:09.918Z,59.40
2023-05-21T11:29:45.833Z,58.80
2023-05-21T11:35:27.786Z,58.70
2023-05-21T11:37:59.813Z,58.50
2023-05-21T11:40:30.605Z,58.00
2023-05-21T11:42:58.782Z,57.50
2023-05-21T11:45:32.087Z,57.20
2023-05-21T11:48:08.556Z,57.10
2023-05-21T11:50:39.537Z,56.90
2023-05-21T11:53:21.239Z,56.70
2023-05-21T11:55:57.715Z,56.80
2023-05-21T11:58:26.170Z,56.60
2023-05-21T12:00:54.338Z,56.00
2023-05-21T12:03:27.180Z,56.10
2023-05-21T12:05:56.078Z,55.90
2023-05-21T12:08:27.379Z,56.00
2023-05-21T12:11:03.423Z,55.90
2023-05-21T12:13:48.974Z,55.60
2023-05-21T12:16:17.675Z,54.70
2023-05-21T12:18:49.729Z,54.60
2023-05-21T12:21:18.521Z,54.80
2023-05-21T12:23:48.961Z,54.00
2023-05-21T12:26:19.773Z,53.90
2023-05-21T12:31:33.469Z,54.60
2023-05-21T12:34:04.433Z,55.20
2023-05-21T12:36:36.600Z,55.60
2023-05-21T12:39:12.478Z,55.90
2023-05-21T12:41:47.739Z,56.30
2023-05-21T12:44:18.301Z,56.50
2023-05-21T12:46:49.525Z,56.70
2023-05-21T13:27:29.010Z,56.90
2023-05-21T13:29:57.208Z,58.70
2023-05-21T13:32:25.588Z,58.60
2023-05-21T13:34:53.850Z,58.60
2023-05-21T13:37:22.055Z,58.60
2023-05-21T13:39:50.239Z,58.30
2023-05-21T13:42:18.413Z,58.20
2023-05-21T13:44:48.401Z,58.10
2023-05-21T13:47:16.767Z,57.70
2023-05-21T13:49:44.903Z,57.50
2023-05-21T13:52:13.237Z,57.20
2023-05-21T13:54:41.744Z,57.10
2023-05-21T13:57:09.942Z,56.80
2023-05-21T13:59:38.111Z,56.70
2023-05-21T14:02:12.593Z,56.20
2023-05-21T14:04:47.642Z,56.90
2023-05-21T14:07:19.661Z,56.70
2023-05-21T14:09:52.476Z,55.90
2023-05-21T14:12:22.392Z,55.50
2023-05-21T14:15:12.011Z,54.60
2023-05-21T14:17:42.500Z,54.20
2023-05-21T14:20:11.641Z,54.10
2023-05-21T14:22:39.927Z,53.70
2023-05-21T14:25:08.888Z,53.50
2023-05-21T14:27:38.563Z,52.90
2023-05-21T14:30:07.999Z,52.40
2023-05-21T14:32:36.633Z,52.50
2023-05-21T14:35:07.403Z,52.40
2023-05-21T14:37:35.688Z,52.40
2023-05-21T14:40:05.592Z,52.00
2023-05-21T14:42:33.808Z,52.40
2023-05-21T14:45:17.465Z,52.10
2023-05-21T14:47:47.758Z,52.00
2023-05-21T14:50:18.958Z,52.40
2023-05-21T14:52:47.448Z,52.00
2023-05-21T14:55:16.960Z,51.90
2023-05-21T14:57:45.585Z,52.20
2023-05-21T15:00:14.744Z,52.50
2023-05-21T15:02:43.099Z,52.10
2023-05-21T15:05:11.538Z,52.60
2023-05-21T15:07:41.136Z,52.70
2023-05-21T15:10:10.822Z,52.50
2023-05-21T15:12:39.307Z,52.60
2023-05-21T15:15:08.652Z,52.80
2023-05-21T15:17:37.316Z,52.90
2023-05-21T15:20:06.737Z,53.10
2023-05-21T15:22:35.271Z,53.60
2023-05-21T15:25:05.499Z,53.70
2023-05-21T15:27:33.854Z,54.40
2023-05-21T15:30:02.681Z,54.80
2023-05-21T15:32:32.308Z,55.30
2023-05-21T15:35:00.659Z,55.50
2023-05-21T15:37:32.242Z,54.70
2023-05-21T15:40:00.698Z,54.00
2023-05-21T15:42:31.859Z,53.70
2023-05-21T15:45:00.215Z,53.60
2023-05-21T15:47:28.399Z,53.60
2023-05-21T15:49:56.591Z,53.50
2023-05-21T15:52:25.589Z,54.00
2023-05-21T15:54:53.880Z,54.60
2023-05-21T15:57:22.072Z,55.30
2023-05-21T15:59:52.653Z,55.90
2023-05-21T16:02:21.012Z,55.90
2023-05-21T16:04:50.038Z,56.10
2023-05-21T16:07:18.250Z,56.60
2023-05-21T16:09:46.392Z,57.60
2023-05-21T16:12:14.793Z,58.70
2023-05-21T16:14:43.022Z,59.60
2023-05-21T16:17:12.810Z,60.10
2023-05-21T16:19:42.780Z,60.50
2023-05-21T16:22:11.151Z,61.10
2023-05-21T16:24:39.756Z,61.60
2023-05-21T16:27:11.279Z,62.30
2023-05-21T16:29:40.976Z,62.90
2023-05-21T16:32:14.818Z,63.70
2023-05-21T16:34:45.383Z,64.10
2023-05-21T16:37:14.845Z,64.80
2023-05-21T16:39:43.017Z,65.30
2023-05-21T16:42:11.259Z,66.10
2023-05-21T16:44:39.431Z,66.60
2023-05-21T16:47:08.353Z,67.00
2023-05-21T16:49:37.912Z,67.60
2023-05-21T16:52:06.436Z,68.00
2023-05-21T16:54:34.986Z,68.70
2023-05-21T16:57:03.116Z,69.10
2023-05-21T16:59:38.069Z,69.60
2023-05-21T17:02:06.641Z,69.90
2023-05-21T17:04:34.830Z,70.40
2023-05-21T17:07:04.513Z,70.80
2023-05-21T17:09:32.705Z,71.10
2023-05-21T17:12:00.898Z,71.40
2023-05-21T17:17:00.614Z,72.40
2023-05-21T17:19:29.126Z,72.70
2023-05-21T17:21:57.408Z,73.00
2023-05-21T17:24:27.011Z,73.40
2023-05-21T17:26:55.411Z,73.50
2023-05-21T17:29:23.654Z,73.90
2023-05-21T17:31:53.804Z,74.00
2023-05-21T17:34:24.651Z,73.90
2023-05-21T17:36:52.852Z,73.80
2023-05-21T17:39:21.228Z,74.10
2023-05-21T17:41:51.470Z,74.50
2023-05-21T17:44:20.497Z,74.40
2023-05-21T17:46:49.887Z,74.60
2023-05-21T17:49:18.203Z,74.50
2023-05-21T17:51:46.785Z,74.30
2023-05-21T17:54:15.051Z,74.50
2023-05-21T17:56:45.569Z,74.50
2023-05-21T17:59:15.994Z,74.60
2023-05-21T18:01:44.271Z,74.60
2023-05-21T18:04:13.293Z,74.40
2023-05-21T18:06:41.733Z,74.40
2023-05-21T18:09:10.671Z,74.50
2023-05-21T18:11:39.845Z,74.50
2023-05-21T18:14:07.990Z,74.70
2023-05-21T18:16:37.640Z,74.80
2023-05-21T18:19:06.813Z,75.10
2023-05-21T18:21:35.619Z,75.30
2023-05-21T18:24:04.044Z,75.70
2023-05-21T18:26:32.411Z,75.60
2023-05-21T18:29:01.150Z,75.70
2023-05-21T18:31:29.475Z,75.90
2023-05-21T18:33:59.291Z,75.80
2023-05-21T18:36:27.730Z,75.90
2023-05-21T18:38:55.923Z,75.90
2023-05-21T18:41:24.086Z,75.90
2023-05-21T18:43:52.302Z,76.10
2023-05-21T18:46:20.532Z,76.20
2023-05-21T18:48:48.822Z,76.40
2023-05-21T18:51:18.556Z,76.00
2023-05-21T18:53:46.744Z,76.20
2023-05-21T18:56:15.126Z,76.40
2023-05-21T18:58:43.297Z,76.40
2023-05-21T19:01:11.984Z,76.60
2023-05-21T19:03:40.199Z,76.70
2023-05-21T19:06:11.164Z,76.80
2023-05-21T19:08:41.401Z,76.80
2023-05-21T19:11:09.754Z,76.80
2023-05-21T19:13:37.897Z,76.90
2023-05-21T19:16:11.014Z,77.00
2023-05-21T19:18:43.389Z,77.00
2023-05-21T19:21:12.053Z,77.20
2023-05-21T19:23:51.953Z,77.10
2023-05-21T19:26:21.497Z,77.00
2023-05-21T19:28:53.282Z,77.20
2023-05-21T19:31:22.367Z,77.30
2023-05-21T19:33:50.845Z,77.20
2023-05-21T19:36:19.589Z,77.50
2023-05-21T19:38:49.882Z,77.40
2023-05-21T19:41:18.310Z,77.60
2023-05-21T19:43:46.830Z,77.60
2023-05-21T19:46:19.040Z,77.70
2023-05-21T19:48:48.418Z,77.90
2023-05-21T19:51:17.446Z,78.00
2023-05-21T19:53:55.667Z,78.20
2023-05-21T19:59:12.820Z,78.30
2023-05-21T20:01:57.239Z,78.50
2023-05-21T20:04:28.550Z,78.80
2023-05-21T20:09:47.110Z,79.10
2023-05-21T20:12:17.962Z,79.30
2023-05-21T20:14:49.650Z,79.50
2023-05-21T20:17:18.866Z,79.60
2023-05-21T20:19:48.351Z,79.70
2023-05-21T20:22:16.972Z,79.80
2023-05-21T20:24:46.639Z,79.80
2023-05-21T20:27:18.632Z,79.90
2023-05-21T20:29:46.845Z,79.90
2023-05-21T20:32:15.115Z,80.20
2023-05-21T20:34:58.430Z,80.20
2023-05-21T20:37:32.469Z,80.30
2023-05-21T20:40:02.108Z,80.30
2023-05-21T20:42:34.785Z,80.20
2023-05-21T20:45:03.898Z,80.40
2023-05-21T20:47:32.106Z,80.50
2023-05-21T20:50:02.904Z,80.60
2023-05-21T20:52:31.208Z,80.60
2023-05-21T20:55:00.139Z,80.70
2023-05-21T20:57:30.112Z,80.90
2023-05-21T20:59:58.295Z,81.00
2023-05-21T21:02:27.006Z,81.10
2023-05-21T21:04:56.319Z,81.20
2023-05-21T21:07:24.499Z,81.30
2023-05-21T21:09:52.690Z,81.40
2023-05-21T21:12:26.497Z,81.50
2023-05-21T21:14:56.579Z,81.50
2023-05-21T21:17:24.858Z,81.70
2023-05-21T21:19:56.801Z,81.70
2023-05-21T21:22:27.471Z,81.80
2023-05-21T21:24:56.740Z,82.00
2023-05-21T21:27:26.398Z,82.00
2023-05-21T21:29:58.221Z,82.10
2023-05-21T21:32:27.198Z,82.10
2023-05-21T21:34:57.515Z,82.20
2023-05-21T21:37:25.669Z,82.30
2023-05-21T21:39:55.198Z,82.30
2023-05-21T21:42:23.612Z,82.30
2023-05-21T21:44:51.928Z,82.30
2023-05-21T21:47:21.487Z,82.30
2023-05-21T21:49:49.723Z,82.40
2023-05-21T21:52:18.971Z,82.40
2023-05-21T21:54:47.240Z,82.40
2023-05-21T21:57:15.411Z,82.40
2023-05-21T21:59:43.575Z,82.40
2023-05-21T22:02:11.791Z,82.40
2023-05-21T22:04:41.399Z,82.40
2023-05-21T22:07:10.868Z,82.50
2023-05-21T22:09:39.089Z,82.50
2023-05-21T22:12:08.110Z,82.50
2023-05-21T22:14:36.272Z,82.50
2023-05-21T22:17:04.743Z,82.50
2023-05-21T22:19:33.653Z,82.60
2023-05-21T22:22:05.344Z,82.60
2023-05-21T22:24:33.593Z,82.50
2023-05-21T22:27:01.962Z,82.70
2023-05-21T22:29:30.194Z,82.70
2023-05-21T22:31:58.404Z,82.70
2023-05-21T22:34:26.673Z,82.70
2023-05-21T22:36:54.973Z,82.70
2023-05-21T22:39:24.576Z,82.70
2023-05-21T22:41:52.948Z,82.50
2023-05-21T22:44:21.193Z,82.80
2023-05-21T22:46:49.619Z,82.70
2023-05-21T22:49:17.916Z,82.70
2023-05-21T22:51:46.400Z,82.60
2023-05-21T22:54:14.651Z,82.70
2023-05-21T22:56:45.090Z,82.80
2023-05-21T22:59:13.547Z,82.80
2023-05-21T23:01:42.177Z,83.00
2023-05-21T23:04:10.376Z,83.00
2023-05-21T23:06:38.612Z,83.00
2023-05-21T23:09:06.979Z,83.10
2023-05-21T23:11:35.300Z,83.20
2023-05-21T23:14:05.081Z,83.20
2023-05-21T23:16:33.694Z,83.20
2023-05-21T23:19:02.853Z,83.20
2023-05-21T23:21:31.485Z,83.30
2023-05-21T23:23:59.676Z,83.40
2023-05-21T23:26:28.633Z,83.40
2023-05-21T23:28:56.792Z,83.50
2023-05-21T23:31:26.649Z,83.60
2023-05-21T23:33:54.977Z,83.50
2023-05-21T23:36:23.203Z,83.70
2023-05-21T23:38:51.457Z,83.70
2023-05-21T23:41:19.744Z,83.80
2023-05-21T23:43:47.918Z,83.80
2023-05-21T23:46:16.186Z,83.90
2023-05-21T23:48:45.901Z,83.90
2023-05-21T23:51:15.636Z,84.00
2023-05-21T23:53:43.834Z,84.00
2023-05-21T23:56:12.171Z,84.10
2023-05-21T23:58:40.287Z,84.10
